sensor_id;sensor_type;location;lat;lon;timestamp;pressure;altitude;pressure_sealevel;temperature;humidity
36664;BME280;53333;51.976;20.144;2023-06-04T00:02:28;100843.41;;;11.71;32.94
36664;BME280;53333;51.976;20.144;2023-06-04T00:05:00;100845.31;;;11.68;33.08
36664;BME280;53333;51.976;20.144;2023-06-04T00:07:33;100845.38;;;11.66;33.11
36664;BME280;53333;51.976;20.144;2023-06-04T00:10:06;100845.50;;;11.63;33.03
36664;BME280;53333;51.976;20.144;2023-06-04T00:12:39;100846.47;;;11.62;32.97
36664;BME280;53333;51.976;20.144;2023-06-04T00:15:12;100847.44;;;11.59;33.06
36664;BME280;53333;51.976;20.144;2023-06-04T00:17:46;100845.84;;;11.55;33.11
36664;BME280;53333;51.976;20.144;2023-06-04T00:20:19;100848.59;;;11.54;33.05
36664;BME280;53333;51.976;20.144;2023-06-04T00:22:52;100851.34;;;11.52;33.12
36664;BME280;53333;51.976;20.144;2023-06-04T00:25:25;100842.47;;;11.50;33.06
36664;BME280;53333;51.976;20.144;2023-06-04T00:27:57;100843.50;;;11.48;33.08
36664;BME280;53333;51.976;20.144;2023-06-04T00:30:32;100840.88;;;11.46;33.16
36664;BME280;53333;51.976;20.144;2023-06-04T00:33:06;100840.94;;;11.44;33.10
36664;BME280;53333;51.976;20.144;2023-06-04T00:35:39;100843.69;;;11.43;33.09
36664;BME280;53333;51.976;20.144;2023-06-04T00:38:12;100843.81;;;11.40;33.11
36664;BME280;53333;51.976;20.144;2023-06-04T00:40:44;100841.25;;;11.37;33.05
36664;BME280;53333;51.976;20.144;2023-06-04T00:43:17;100841.38;;;11.34;33.22
36664;BME280;53333;51.976;20.144;2023-06-04T00:45:50;100844.19;;;11.31;33.23
36664;BME280;53333;51.976;20.144;2023-06-04T00:48:24;100845.25;;;11.26;33.30
36664;BME280;53333;51.976;20.144;2023-06-04T00:51:00;100848.00;;;11.25;33.18
36664;BME280;53333;51.976;20.144;2023-06-04T00:53:33;100844.44;;;11.24;33.29
36664;BME280;53333;51.976;20.144;2023-06-04T00:56:06;100841.03;;;11.21;33.27
36664;BME280;53333;51.976;20.144;2023-06-04T00:58:39;100846.38;;;11.21;33.20
36664;BME280;53333;51.976;20.144;2023-06-04T01:01:17;100833.06;;;11.19;33.24
36664;BME280;53333;51.976;20.144;2023-06-04T01:03:56;100839.38;;;11.17;33.21
36664;BME280;53333;51.976;20.144;2023-06-04T01:06:35;100835.91;;;11.15;33.38
36664;BME280;53333;51.976;20.144;2023-06-04T01:09:10;100835.06;;;11.14;33.29
36664;BME280;53333;51.976;20.144;2023-06-04T01:11:43;100835.91;;;11.15;33.29
36664;BME280;53333;51.976;20.144;2023-06-04T01:14:16;100845.75;;;11.14;33.25
36664;BME280;53333;51.976;20.144;2023-06-04T01:16:52;100844.00;;;11.13;33.37
36664;BME280;53333;51.976;20.144;2023-06-04T01:22:32;100838.66;;;11.13;33.25
36664;BME280;53333;51.976;20.144;2023-06-04T01:25:09;100844.00;;;11.13;33.28
36664;BME280;53333;51.976;20.144;2023-06-04T01:27:52;100835.13;;;11.13;33.27
36664;BME280;53333;51.976;20.144;2023-06-04T01:30:28;100840.47;;;11.13;33.20
36664;BME280;53333;51.976;20.144;2023-06-04T01:33:02;100839.53;;;11.14;33.23
36664;BME280;53333;51.976;20.144;2023-06-04T01:35:35;100838.72;;;11.12;33.21
36664;BME280;53333;51.976;20.144;2023-06-04T01:38:09;100843.19;;;11.11;33.21
36664;BME280;53333;51.976;20.144;2023-06-04T01:40:42;100834.44;;;11.07;33.20
36664;BME280;53333;51.976;20.144;2023-06-04T01:43:15;100841.50;;;11.08;33.32
36664;BME280;53333;51.976;20.144;2023-06-04T01:45:48;100836.28;;;11.05;33.26
36664;BME280;53333;51.976;20.144;2023-06-04T01:48:20;100833.66;;;11.04;33.29
36664;BME280;53333;51.976;20.144;2023-06-04T01:50:53;100833.78;;;11.01;33.33
36664;BME280;53333;51.976;20.144;2023-06-04T01:53:27;100829.41;;;11.00;33.31
36664;BME280;53333;51.976;20.144;2023-06-04T01:56:00;100831.28;;;10.98;33.43
36664;BME280;53333;51.976;20.144;2023-06-04T01:58:33;100838.44;;;10.96;33.48
36664;BME280;53333;51.976;20.144;2023-06-04T02:01:06;100838.50;;;10.94;33.34
36664;BME280;53333;51.976;20.144;2023-06-04T02:03:39;100836.03;;;10.89;33.39
36664;BME280;53333;51.976;20.144;2023-06-04T02:06:12;100836.09;;;10.88;33.37
36664;BME280;53333;51.976;20.144;2023-06-04T02:08:46;100839.75;;;10.85;33.37
36664;BME280;53333;51.976;20.144;2023-06-04T02:11:19;100835.41;;;10.83;33.42
36664;BME280;53333;51.976;20.144;2023-06-04T02:13:52;100835.50;;;10.80;33.53
36664;BME280;53333;51.976;20.144;2023-06-04T02:16:24;100834.66;;;10.79;33.43
36664;BME280;53333;51.976;20.144;2023-06-04T02:18:57;100834.72;;;10.78;33.47
36664;BME280;53333;51.976;20.144;2023-06-04T02:21:30;100839.19;;;10.77;33.55
36664;BME280;53333;51.976;20.144;2023-06-04T02:24:04;100835.69;;;10.75;33.48
36664;BME280;53333;51.976;20.144;2023-06-04T02:26:37;100832.16;;;10.75;33.57
36664;BME280;53333;51.976;20.144;2023-06-04T02:29:11;100833.06;;;10.73;33.53
36664;BME280;53333;51.976;20.144;2023-06-04T02:31:43;100834.84;;;10.75;33.56
36664;BME280;53333;51.976;20.144;2023-06-04T02:34:16;100833.91;;;10.76;33.50
36664;BME280;53333;51.976;20.144;2023-06-04T02:36:49;100833.00;;;10.75;33.50
36664;BME280;53333;51.976;20.144;2023-06-04T02:39:23;100833.97;;;10.74;33.42
36664;BME280;53333;51.976;20.144;2023-06-04T02:41:56;100829.53;;;10.73;33.50
36664;BME280;53333;51.976;20.144;2023-06-04T02:44:29;100826.94;;;10.71;33.45
36664;BME280;53333;51.976;20.144;2023-06-04T02:47:02;100831.53;;;10.68;33.50
36664;BME280;53333;51.976;20.144;2023-06-04T02:49:35;100828.91;;;10.66;33.52
36664;BME280;53333;51.976;20.144;2023-06-04T02:52:09;100826.25;;;10.66;33.66
36664;BME280;53333;51.976;20.144;2023-06-04T02:54:43;100825.31;;;10.67;33.54
36664;BME280;53333;51.976;20.144;2023-06-04T02:57:16;100828.00;;;10.67;33.65
36664;BME280;53333;51.976;20.144;2023-06-04T02:59:48;100832.50;;;10.65;33.61
36664;BME280;53333;51.976;20.144;2023-06-04T03:02:21;100837.00;;;10.65;33.61
36664;BME280;53333;51.976;20.144;2023-06-04T03:04:54;100837.84;;;10.65;33.53
36664;BME280;53333;51.976;20.144;2023-06-04T03:07:27;100836.94;;;10.66;33.63
36664;BME280;53333;51.976;20.144;2023-06-04T03:10:01;100838.75;;;10.66;33.62
36664;BME280;53333;51.976;20.144;2023-06-04T03:12:36;100836.06;;;10.66;33.69
36664;BME280;53333;51.976;20.144;2023-06-04T03:15:09;100839.66;;;10.65;33.68
36664;BME280;53333;51.976;20.144;2023-06-04T03:17:42;100850.34;;;10.65;33.69
36664;BME280;53333;51.976;20.144;2023-06-04T03:20:15;100837.00;;;10.65;33.65
36664;BME280;53333;51.976;20.144;2023-06-04T03:22:48;100837.84;;;10.65;33.59
36664;BME280;53333;51.976;20.144;2023-06-04T03:25:22;100838.75;;;10.66;33.67
36664;BME280;53333;51.976;20.144;2023-06-04T03:27:55;100840.47;;;10.67;33.76
36664;BME280;53333;51.976;20.144;2023-06-04T03:30:29;100844.84;;;10.69;33.66
36664;BME280;53333;51.976;20.144;2023-06-04T03:33:07;100838.47;;;10.72;33.58
36664;BME280;53333;51.976;20.144;2023-06-04T03:35:40;100852.69;;;10.74;33.65
36664;BME280;53333;51.976;20.144;2023-06-04T03:38:13;100849.88;;;10.77;33.69
36664;BME280;53333;51.976;20.144;2023-06-04T03:40:48;100847.09;;;10.80;33.54
36664;BME280;53333;51.976;20.144;2023-06-04T03:43:22;100853.19;;;10.84;33.65
36664;BME280;53333;51.976;20.144;2023-06-04T03:45:59;100850.34;;;10.88;33.54
36664;BME280;53333;51.976;20.144;2023-06-04T03:48:31;100848.53;;;10.89;33.70
36664;BME280;53333;51.976;20.144;2023-06-04T03:51:04;100848.47;;;10.90;33.83
36664;BME280;53333;51.976;20.144;2023-06-04T03:53:38;100846.47;;;10.96;33.82
36664;BME280;53333;51.976;20.144;2023-06-04T03:56:12;100853.41;;;11.01;33.73
36664;BME280;53333;51.976;20.144;2023-06-04T03:58:45;100843.38;;;11.06;33.67
36664;BME280;53333;51.976;20.144;2023-06-04T04:01:19;100849.28;;;11.15;33.65
36664;BME280;53333;51.976;20.144;2023-06-04T04:03:52;100838.22;;;11.24;33.53
36664;BME280;53333;51.976;20.144;2023-06-04T04:06:25;100844.91;;;11.34;33.55
36664;BME280;53333;51.976;20.144;2023-06-04T04:08:58;100842.78;;;11.44;33.47
36664;BME280;53333;51.976;20.144;2023-06-04T04:11:32;100841.44;;;11.54;33.41
36664;BME280;53333;51.976;20.144;2023-06-04T04:14:06;100843.66;;;11.65;33.42
36664;BME280;53333;51.976;20.144;2023-06-04T04:16:39;100843.22;;;11.76;33.35
36664;BME280;53333;51.976;20.144;2023-06-04T04:19:12;100837.44;;;11.85;33.34
36664;BME280;53333;51.976;20.144;2023-06-04T04:21:45;100842.28;;;11.97;33.29
36664;BME280;53333;51.976;20.144;2023-06-04T04:24:22;100841.75;;;12.10;33.20
36664;BME280;53333;51.976;20.144;2023-06-04T04:26:56;100844.69;;;12.24;33.19
36664;BME280;53333;51.976;20.144;2023-06-04T04:29:30;100836.19;;;12.35;33.15
36664;BME280;53333;51.976;20.144;2023-06-04T04:32:04;100841.03;;;12.46;33.15
36664;BME280;53333;51.976;20.144;2023-06-04T04:34:50;100842.38;;;12.56;33.18
36664;BME280;53333;51.976;20.144;2023-06-04T04:37:27;100839.97;;;12.69;33.03
36664;BME280;53333;51.976;20.144;2023-06-04T04:40:02;100839.41;;;12.81;32.96
36664;BME280;53333;51.976;20.144;2023-06-04T04:42:41;100845.97;;;12.93;32.89
36664;BME280;53333;51.976;20.144;2023-06-04T04:45:16;100847.28;;;13.03;32.89
36664;BME280;53333;51.976;20.144;2023-06-04T04:47:52;100850.06;;;13.19;32.85
36664;BME280;53333;51.976;20.144;2023-06-04T04:50:24;100850.22;;;13.35;32.79
36664;BME280;53333;51.976;20.144;2023-06-04T04:52:57;100844.19;;;13.49;32.55
36664;BME280;53333;51.976;20.144;2023-06-04T04:55:31;100845.31;;;13.62;32.49
36664;BME280;53333;51.976;20.144;2023-06-04T04:58:05;100841.91;;;13.76;32.44
36664;BME280;53333;51.976;20.144;2023-06-04T05:00:38;100837.81;;;13.87;32.73
36664;BME280;53333;51.976;20.144;2023-06-04T05:03:12;100834.56;;;13.97;32.72
36664;BME280;53333;51.976;20.144;2023-06-04T05:05:44;100835.59;;;14.12;32.60
36664;BME280;53333;51.976;20.144;2023-06-04T05:08:17;100834.81;;;14.26;32.40
36664;BME280;53333;51.976;20.144;2023-06-04T05:10:50;100834.00;;;14.42;32.41
36664;BME280;53333;51.976;20.144;2023-06-04T05:13:24;100840.34;;;14.57;32.33
36664;BME280;53333;51.976;20.144;2023-06-04T05:16:02;100837.13;;;14.67;32.45
36664;BME280;53333;51.976;20.144;2023-06-04T05:18:41;100833.75;;;14.80;32.26
36664;BME280;53333;51.976;20.144;2023-06-04T05:21:19;100842.00;;;14.93;32.26
36664;BME280;53333;51.976;20.144;2023-06-04T05:23:58;100836.81;;;15.05;32.08
36664;BME280;53333;51.976;20.144;2023-06-04T05:26:36;100843.13;;;15.20;32.18
36664;BME280;53333;51.976;20.144;2023-06-04T05:29:18;100834.16;;;15.36;31.95
36664;BME280;53333;51.976;20.144;2023-06-04T05:31:52;100839.53;;;15.52;31.81
36664;BME280;53333;51.976;20.144;2023-06-04T05:34:26;100838.63;;;15.67;31.84
36664;BME280;53333;51.976;20.144;2023-06-04T05:36:59;100830.81;;;15.78;31.66
36664;BME280;53333;51.976;20.144;2023-06-04T05:39:32;100827.56;;;15.88;31.83
36664;BME280;53333;51.976;20.144;2023-06-04T05:42:15;100839.69;;;15.95;31.88
36664;BME280;53333;51.976;20.144;2023-06-04T05:44:50;100841.06;;;16.02;32.13
36664;BME280;53333;51.976;20.144;2023-06-04T05:47:25;100837.69;;;16.13;32.03
36664;BME280;53333;51.976;20.144;2023-06-04T05:50:00;100832.53;;;16.24;31.98
36664;BME280;53333;51.976;20.144;2023-06-04T05:52:34;100836.94;;;16.40;31.66
36664;BME280;53333;51.976;20.144;2023-06-04T05:55:11;100838.88;;;16.52;31.79
36664;BME280;53333;51.976;20.144;2023-06-04T05:57:44;100839.25;;;16.60;32.02
36664;BME280;53333;51.976;20.144;2023-06-04T06:00:18;100838.69;;;16.69;31.88
36664;BME280;53333;51.976;20.144;2023-06-04T06:02:53;100845.91;;;16.83;31.77
36664;BME280;53333;51.976;20.144;2023-06-04T06:05:36;100851.22;;;16.99;31.73
36664;BME280;53333;51.976;20.144;2023-06-04T06:08:09;100855.69;;;17.13;31.91
36664;BME280;53333;51.976;20.144;2023-06-04T06:10:42;100855.84;;;17.24;31.66
36664;BME280;53333;51.976;20.144;2023-06-04T06:13:15;100854.19;;;17.36;31.46
36664;BME280;53333;51.976;20.144;2023-06-04T06:15:49;100857.03;;;17.48;31.57
36664;BME280;53333;51.976;20.144;2023-06-04T06:18:24;100855.34;;;17.59;31.34
36664;BME280;53333;51.976;20.144;2023-06-04T06:20:57;100851.81;;;17.72;31.29
36664;BME280;53333;51.976;20.144;2023-06-04T06:23:30;100850.97;;;17.84;31.42
36664;BME280;53333;51.976;20.144;2023-06-04T06:26:04;100856.44;;;17.97;31.19
36664;BME280;53333;51.976;20.144;2023-06-04T06:28:45;100852.91;;;18.09;31.29
36664;BME280;53333;51.976;20.144;2023-06-04T06:31:20;100850.19;;;18.22;31.13
36664;BME280;53333;51.976;20.144;2023-06-04T06:33:53;100850.09;;;18.37;31.31
36664;BME280;53333;51.976;20.144;2023-06-04T06:36:25;100847.38;;;18.49;31.28
36664;BME280;53333;51.976;20.144;2023-06-04T06:39:00;100853.00;;;18.59;31.12
36664;BME280;53333;51.976;20.144;2023-06-04T06:41:33;100849.53;;;18.70;31.17
36664;BME280;53333;51.976;20.144;2023-06-04T06:44:06;100851.13;;;18.85;31.10
36664;BME280;53333;51.976;20.144;2023-06-04T06:46:41;100854.59;;;19.00;30.94
36664;BME280;53333;51.976;20.144;2023-06-04T06:49:14;100858.50;;;19.20;30.76
36664;BME280;53333;51.976;20.144;2023-06-04T06:51:46;100860.81;;;19.38;30.48
36664;BME280;53333;51.976;20.144;2023-06-04T06:54:19;100855.97;;;19.54;30.43
36664;BME280;53333;51.976;20.144;2023-06-04T06:56:53;100854.19;;;19.66;30.73
36664;BME280;53333;51.976;20.144;2023-06-04T06:59:26;100852.41;;;19.78;30.47
36664;BME280;53333;51.976;20.144;2023-06-04T07:02:01;100859.00;;;19.87;30.64
36664;BME280;53333;51.976;20.144;2023-06-04T07:04:34;100862.47;;;20.00;30.62
36664;BME280;53333;51.976;20.144;2023-06-04T07:07:06;100862.25;;;20.14;30.55
36664;BME280;53333;51.976;20.144;2023-06-04T07:09:40;100866.50;;;20.30;30.31
36664;BME280;53333;51.976;20.144;2023-06-04T07:12:12;100861.56;;;20.46;30.38
36664;BME280;53333;51.976;20.144;2023-06-04T07:14:45;100857.75;;;20.60;30.36
36664;BME280;53333;51.976;20.144;2023-06-04T07:17:19;100858.66;;;20.72;30.12
36664;BME280;53333;51.976;20.144;2023-06-04T07:19:52;100860.00;;;20.89;29.99
36664;BME280;53333;51.976;20.144;2023-06-04T07:22:25;100868.88;;;21.02;30.30
36664;BME280;53333;51.976;20.144;2023-06-04T07:24:58;100859.00;;;21.13;29.94
36664;BME280;53333;51.976;20.144;2023-06-04T07:27:30;100866.34;;;21.22;29.79
36664;BME280;53333;51.976;20.144;2023-06-04T07:30:03;100862.88;;;21.31;29.87
36664;BME280;53333;51.976;20.144;2023-06-04T07:32:38;100865.31;;;21.46;30.00
36664;BME280;53333;51.976;20.144;2023-06-04T07:35:11;100870.47;;;21.60;29.85
36664;BME280;53333;51.976;20.144;2023-06-04T07:37:43;100860.19;;;21.75;29.46
36664;BME280;53333;51.976;20.144;2023-06-04T07:40:19;100863.19;;;21.93;29.38
36664;BME280;53333;51.976;20.144;2023-06-04T07:42:52;100860.13;;;22.07;29.38
36664;BME280;53333;51.976;20.144;2023-06-04T07:45:25;100853.97;;;22.26;29.45
36664;BME280;53333;51.976;20.144;2023-06-04T07:48:02;100858.97;;;22.42;29.33
36664;BME280;53333;51.976;20.144;2023-06-04T07:50:35;100864.44;;;22.52;29.04
36664;BME280;53333;51.976;20.144;2023-06-04T07:53:11;100863.25;;;22.66;29.19
36664;BME280;53333;51.976;20.144;2023-06-04T07:55:44;100867.56;;;22.78;29.41
36664;BME280;53333;51.976;20.144;2023-06-04T07:58:17;100863.88;;;22.89;29.00
36664;BME280;53333;51.976;20.144;2023-06-04T08:00:49;100859.06;;;23.02;29.16
36664;BME280;53333;51.976;20.144;2023-06-04T08:03:24;100861.31;;;23.18;29.24
36664;BME280;53333;51.976;20.144;2023-06-04T08:05:57;100862.75;;;23.32;28.83
36664;BME280;53333;51.976;20.144;2023-06-04T08:08:29;100856.88;;;23.47;29.08
36664;BME280;53333;51.976;20.144;2023-06-04T08:11:02;100864.34;;;23.45;28.92
36664;BME280;53333;51.976;20.144;2023-06-04T08:13:35;100870.09;;;23.51;29.04
36664;BME280;53333;51.976;20.144;2023-06-04T08:16:08;100855.88;;;23.67;29.14
36664;BME280;53333;51.976;20.144;2023-06-04T08:18:43;100855.75;;;23.88;28.76
36664;BME280;53333;51.976;20.144;2023-06-04T08:21:24;100851.00;;;24.10;28.64
36664;BME280;53333;51.976;20.144;2023-06-04T08:23:57;100853.09;;;24.36;28.65
36664;BME280;53333;51.976;20.144;2023-06-04T08:26:31;100850.63;;;24.62;28.44
36664;BME280;53333;51.976;20.144;2023-06-04T08:29:04;100863.59;;;24.88;28.09
36664;BME280;53333;51.976;20.144;2023-06-04T08:31:37;100862.50;;;25.08;27.91
36664;BME280;53333;51.976;20.144;2023-06-04T08:34:12;100849.13;;;25.33;27.97
36664;BME280;53333;51.976;20.144;2023-06-04T08:36:45;100854.13;;;25.55;27.61
36664;BME280;53333;51.976;20.144;2023-06-04T08:39:19;100850.81;;;25.88;27.49
36664;BME280;53333;51.976;20.144;2023-06-04T08:41:54;100846.19;;;26.24;27.50
36664;BME280;53333;51.976;20.144;2023-06-04T08:44:29;100848.47;;;26.63;27.21
36664;BME280;53333;51.976;20.144;2023-06-04T08:47:03;100848.06;;;27.19;26.84
36664;BME280;53333;51.976;20.144;2023-06-04T08:49:37;100847.00;;;28.04;26.20
36664;BME280;53333;51.976;20.144;2023-06-04T08:52:16;100855.72;;;29.36;25.13
36664;BME280;53333;51.976;20.144;2023-06-04T08:54:49;100847.66;;;30.87;23.83
36664;BME280;53333;51.976;20.144;2023-06-04T08:57:23;100854.94;;;32.32;22.77
36664;BME280;53333;51.976;20.144;2023-06-04T08:59:55;100857.72;;;33.57;21.74
36664;BME280;53333;51.976;20.144;2023-06-04T09:02:28;100851.78;;;34.74;21.33
36664;BME280;53333;51.976;20.144;2023-06-04T09:05:04;100842.28;;;35.79;20.78
36664;BME280;53333;51.976;20.144;2023-06-04T09:07:39;100852.00;;;36.64;20.86
36664;BME280;53333;51.976;20.144;2023-06-04T09:10:15;100847.69;;;37.23;20.05
36664;BME280;53333;51.976;20.144;2023-06-04T09:12:50;100857.72;;;37.85;20.07
36664;BME280;53333;51.976;20.144;2023-06-04T09:15:23;100852.94;;;38.40;20.22
36664;BME280;53333;51.976;20.144;2023-06-04T09:17:56;100848.41;;;38.86;20.23
36664;BME280;53333;51.976;20.144;2023-06-04T09:20:30;100852.16;;;39.32;19.93
36664;BME280;53333;51.976;20.144;2023-06-04T09:23:12;100850.53;;;39.65;20.14
36664;BME280;53333;51.976;20.144;2023-06-04T09:25:48;100841.38;;;39.99;20.47
36664;BME280;53333;51.976;20.144;2023-06-04T09:28:21;100848.88;;;40.32;20.12
36664;BME280;53333;51.976;20.144;2023-06-04T09:30:53;100843.22;;;40.44;20.66
36664;BME280;53333;51.976;20.144;2023-06-04T09:33:26;100835.16;;;40.70;20.67
36664;BME280;53333;51.976;20.144;2023-06-04T09:36:01;100821.50;;;40.73;20.88
36664;BME280;53333;51.976;20.144;2023-06-04T09:38:37;100829.09;;;40.56;20.86
36664;BME280;53333;51.976;20.144;2023-06-04T09:41:13;100831.16;;;40.43;21.16
36664;BME280;53333;51.976;20.144;2023-06-04T09:43:46;100827.44;;;40.38;21.56
36664;BME280;53333;51.976;20.144;2023-06-04T09:46:19;100833.44;;;40.46;21.59
36664;BME280;53333;51.976;20.144;2023-06-04T09:48:58;100831.06;;;40.38;21.54
36664;BME280;53333;51.976;20.144;2023-06-04T09:51:33;100834.81;;;40.27;21.34
36664;BME280;53333;51.976;20.144;2023-06-04T09:54:05;100835.00;;;40.03;21.69
36664;BME280;53333;51.976;20.144;2023-06-04T09:56:39;100836.28;;;39.50;22.79
36664;BME280;53333;51.976;20.144;2023-06-04T09:59:11;100829.75;;;38.75;23.17
36664;BME280;53333;51.976;20.144;2023-06-04T10:01:45;100828.63;;;37.81;24.68
36664;BME280;53333;51.976;20.144;2023-06-04T10:04:19;100823.03;;;37.08;25.19
36664;BME280;53333;51.976;20.144;2023-06-04T10:06:56;100825.78;;;36.34;26.24
36664;BME280;53333;51.976;20.144;2023-06-04T10:09:29;100824.41;;;35.68;26.58
36664;BME280;53333;51.976;20.144;2023-06-04T10:12:04;100818.94;;;35.16;27.17
36664;BME280;53333;51.976;20.144;2023-06-04T10:14:38;100818.91;;;34.71;27.44
36664;BME280;53333;51.976;20.144;2023-06-04T10:17:12;100810.50;;;34.32;27.52
36664;BME280;53333;51.976;20.144;2023-06-04T10:19:46;100820.28;;;33.88;27.58
36664;BME280;53333;51.976;20.144;2023-06-04T10:22:21;100810.81;;;33.36;27.80
36664;BME280;53333;51.976;20.144;2023-06-04T10:24:54;100810.03;;;32.93;27.86
36664;BME280;53333;51.976;20.144;2023-06-04T10:27:26;100800.06;;;32.57;28.02
36664;BME280;53333;51.976;20.144;2023-06-04T10:30:00;100806.09;;;32.33;27.87
36664;BME280;53333;51.976;20.144;2023-06-04T10:32:34;100806.78;;;32.13;27.60
36664;BME280;53333;51.976;20.144;2023-06-04T10:35:07;100802.78;;;31.94;27.62
36664;BME280;53333;51.976;20.144;2023-06-04T10:37:42;100805.06;;;31.62;27.37
36664;BME280;53333;51.976;20.144;2023-06-04T10:40:14;100803.06;;;31.35;27.44
36664;BME280;53333;51.976;20.144;2023-06-04T10:42:47;100794.28;;;31.09;27.21
36664;BME280;53333;51.976;20.144;2023-06-04T10:45:24;100789.19;;;30.91;27.13
36664;BME280;53333;51.976;20.144;2023-06-04T10:48:01;100788.53;;;30.74;27.23
36664;BME280;53333;51.976;20.144;2023-06-04T10:50:35;100784.09;;;30.58;27.16
36664;BME280;53333;51.976;20.144;2023-06-04T10:53:09;100788.28;;;30.39;27.06
36664;BME280;53333;51.976;20.144;2023-06-04T10:55:45;100784.56;;;30.17;27.09
36664;BME280;53333;51.976;20.144;2023-06-04T10:58:18;100782.91;;;29.70;27.18
36664;BME280;53333;51.976;20.144;2023-06-04T11:00:55;100783.47;;;29.11;27.37
36664;BME280;53333;51.976;20.144;2023-06-04T11:03:34;100795.19;;;28.73;27.33
36664;BME280;53333;51.976;20.144;2023-06-04T11:06:16;100786.34;;;28.47;27.58
36664;BME280;53333;51.976;20.144;2023-06-04T11:09:00;100786.56;;;28.29;27.77
36664;BME280;53333;51.976;20.144;2023-06-04T11:11:33;100785.38;;;28.23;27.32
36664;BME280;53333;51.976;20.144;2023-06-04T11:14:09;100776.44;;;28.21;27.33
36664;BME280;53333;51.976;20.144;2023-06-04T11:16:44;100783.50;;;28.15;27.05
36664;BME280;53333;51.976;20.144;2023-06-04T11:19:17;100785.22;;;28.08;27.33
36664;BME280;53333;51.976;20.144;2023-06-04T11:21:49;100783.53;;;28.07;27.02
36664;BME280;53333;51.976;20.144;2023-06-04T11:24:23;100776.63;;;28.11;26.95
36664;BME280;53333;51.976;20.144;2023-06-04T11:26:56;100775.13;;;28.08;26.79
36664;BME280;53333;51.976;20.144;2023-06-04T11:29:37;100776.13;;;27.91;27.05
36664;BME280;53333;51.976;20.144;2023-06-04T11:32:20;100785.56;;;27.80;26.85
36664;BME280;53333;51.976;20.144;2023-06-04T11:35:01;100784.91;;;27.78;26.73
36664;BME280;53333;51.976;20.144;2023-06-04T11:37:34;100789.50;;;27.78;26.61
36664;BME280;53333;51.976;20.144;2023-06-04T11:40:18;100791.06;;;27.72;26.72
36664;BME280;53333;51.976;20.144;2023-06-04T11:42:51;100786.28;;;27.66;26.56
36664;BME280;53333;51.976;20.144;2023-06-04T11:45:24;100785.75;;;27.62;26.67
36664;BME280;53333;51.976;20.144;2023-06-04T11:47:58;100784.88;;;27.62;26.55
36664;BME280;53333;51.976;20.144;2023-06-04T11:50:31;100785.94;;;27.61;26.58
36664;BME280;53333;51.976;20.144;2023-06-04T11:53:03;100775.31;;;27.49;26.53
36664;BME280;53333;51.976;20.144;2023-06-04T11:55:40;100783.31;;;27.34;26.62
36664;BME280;53333;51.976;20.144;2023-06-04T11:58:12;100784.34;;;27.25;26.60
36664;BME280;53333;51.976;20.144;2023-06-04T12:00:45;100787.19;;;27.15;26.53
36664;BME280;53333;51.976;20.144;2023-06-04T12:03:18;100772.81;;;27.05;26.71
36664;BME280;53333;51.976;20.144;2023-06-04T12:05:51;100768.47;;;26.86;26.85
36664;BME280;53333;51.976;20.144;2023-06-04T12:08:24;100773.44;;;26.82;26.94
36664;BME280;53333;51.976;20.144;2023-06-04T12:10:58;100779.94;;;26.81;26.77
36664;BME280;53333;51.976;20.144;2023-06-04T12:13:36;100772.56;;;26.82;26.74
36664;BME280;53333;51.976;20.144;2023-06-04T12:16:13;100771.88;;;26.80;26.63
36664;BME280;53333;51.976;20.144;2023-06-04T12:18:46;100773.75;;;26.71;26.75
36664;BME280;53333;51.976;20.144;2023-06-04T12:21:20;100772.63;;;26.64;26.78
36664;BME280;53333;51.976;20.144;2023-06-04T12:24:05;100769.88;;;26.56;26.78
36664;BME280;53333;51.976;20.144;2023-06-04T12:26:40;100760.41;;;26.50;26.82
36664;BME280;53333;51.976;20.144;2023-06-04T12:29:13;100761.78;;;26.46;26.76
36664;BME280;53333;51.976;20.144;2023-06-04T12:31:46;100768.25;;;26.37;26.72
36664;BME280;53333;51.976;20.144;2023-06-04T12:34:19;100767.19;;;26.30;26.47
36664;BME280;53333;51.976;20.144;2023-06-04T12:36:51;100772.28;;;26.24;26.59
36664;BME280;53333;51.976;20.144;2023-06-04T12:39:24;100775.13;;;26.15;26.74
36664;BME280;53333;51.976;20.144;2023-06-04T12:42:00;100767.88;;;26.05;26.43
36664;BME280;53333;51.976;20.144;2023-06-04T12:44:33;100764.38;;;25.95;26.63
36664;BME280;53333;51.976;20.144;2023-06-04T12:47:06;100768.91;;;25.86;26.47
36664;BME280;53333;51.976;20.144;2023-06-04T12:49:40;100768.69;;;25.80;26.89
36664;BME280;53333;51.976;20.144;2023-06-04T12:52:12;100769.00;;;25.77;26.61
36664;BME280;53333;51.976;20.144;2023-06-04T12:54:47;100761.69;;;25.77;26.55
36664;BME280;53333;51.976;20.144;2023-06-04T12:57:24;100768.78;;;25.70;26.72
36664;BME280;53333;51.976;20.144;2023-06-04T12:59:56;100764.53;;;25.67;26.60
36664;BME280;53333;51.976;20.144;2023-06-04T13:02:29;100759.06;;;25.67;26.88
36664;BME280;53333;51.976;20.144;2023-06-04T13:05:02;100756.84;;;25.71;26.76
36664;BME280;53333;51.976;20.144;2023-06-04T13:07:35;100759.59;;;25.71;26.45
36664;BME280;53333;51.976;20.144;2023-06-04T13:10:08;100758.00;;;25.68;26.68
36664;BME280;53333;51.976;20.144;2023-06-04T13:12:42;100756.16;;;25.69;26.69
36664;BME280;53333;51.976;20.144;2023-06-04T13:15:15;100749.34;;;25.73;26.59
36664;BME280;53333;51.976;20.144;2023-06-04T13:17:48;100750.91;;;25.76;26.33
36664;BME280;53333;51.976;20.144;2023-06-04T13:20:21;100752.59;;;25.77;26.48